Terminal Aerodrome Forecast
Issued by NWS Louisville, KY

Home | Current Version | Previous Version | Text Only | Print | Product List | Glossary On
Versions: 1 2 3 4 5 6 7 8 9 10 11 12 13 14 15 16 17
000
FTUS43 KLMK 290900 AAA
TAFLEX
TAF AMD
KLEX 290910Z 2909/3006 17010KT P6SM VCSH BKN250 WS020/21052KT
     FM291200 19014G24KT P6SM VCSH OVC040
     FM291800 23014G24KT P6SM VCSH BKN025
     FM292300 27012G18KT P6SM BKN015
     FM300200 31010KT P6SM BKN015=

USA.gov is the U.S. government's official web portal to all federal, state and local government web resources and services.